createdAt,value
2022-08-11T00:00:42.895Z,14.79
2022-08-11T00:01:42.862Z,14.72
2022-08-11T00:02:42.877Z,14.81
2022-08-11T00:03:43.950Z,14.73
2022-08-11T00:04:42.832Z,14.82
2022-08-11T00:05:42.850Z,14.62
2022-08-11T00:06:42.831Z,14.79
2022-08-11T00:07:42.818Z,14.63
2022-08-11T00:08:42.804Z,14.58
2022-08-11T00:09:42.829Z,14.53
2022-08-11T00:10:42.808Z,14.58
2022-08-11T00:11:42.788Z,14.59
2022-08-11T00:12:42.775Z,14.47
2022-08-11T00:13:42.762Z,14.55
2022-08-11T00:14:42.757Z,14.45
2022-08-11T00:15:42.769Z,14.50
2022-08-11T00:16:42.738Z,14.47
2022-08-11T00:17:42.728Z,14.36
2022-08-11T00:18:42.721Z,14.29
2022-08-11T00:20:14.299Z,14.29
2022-08-11T00:20:43.725Z,14.40
2022-08-11T00:22:05.101Z,14.32
2022-08-11T00:22:43.685Z,14.37
2022-08-11T00:23:42.680Z,14.28
2022-08-11T00:24:53.392Z,14.30
2022-08-11T00:25:43.690Z,14.35
2022-08-11T00:26:42.659Z,14.33
2022-08-11T00:27:42.649Z,14.44
2022-08-11T00:28:42.643Z,14.35
2022-08-11T00:29:51.748Z,14.36
2022-08-11T00:30:43.649Z,14.32
2022-08-11T00:31:42.620Z,14.28
2022-08-11T00:32:42.611Z,14.32
2022-08-11T00:33:45.233Z,14.30
2022-08-11T00:34:42.600Z,14.28
2022-08-11T00:35:55.516Z,14.22
2022-08-11T00:36:43.573Z,14.32
2022-08-11T00:37:42.608Z,14.37
2022-08-11T00:38:42.563Z,14.25
2022-08-11T00:39:42.641Z,14.18
2022-08-11T00:40:42.578Z,14.22
2022-08-11T00:41:42.539Z,14.14
2022-08-11T00:42:42.539Z,14.10
2022-08-11T00:43:42.531Z,14.07
2022-08-11T00:44:42.517Z,14.10
2022-08-11T00:45:42.539Z,13.97
2022-08-11T00:46:42.509Z,14.05
2022-08-11T00:47:42.494Z,14.08
2022-08-11T00:48:42.476Z,14.03
2022-08-11T00:49:43.480Z,14.08
2022-08-11T00:50:42.499Z,14.00
2022-08-11T00:51:56.724Z,14.12
2022-08-11T00:52:43.452Z,13.97
2022-08-11T00:53:42.446Z,14.12
2022-08-11T00:54:42.438Z,14.04
2022-08-11T00:55:42.459Z,14.03
2022-08-11T00:56:42.426Z,13.96
2022-08-11T00:57:42.421Z,13.96
2022-08-11T00:58:42.408Z,13.95
2022-08-11T00:59:42.402Z,13.92
2022-08-11T01:00:42.451Z,13.95
2022-08-11T01:01:42.390Z,13.87
2022-08-11T01:02:42.382Z,13.87
2022-08-11T01:03:42.376Z,13.81
2022-08-11T01:04:42.364Z,13.90
2022-08-11T01:05:42.383Z,13.72
2022-08-11T01:06:42.351Z,13.85
2022-08-11T01:08:01.838Z,13.78
2022-08-11T01:08:43.334Z,13.86
2022-08-11T01:09:42.326Z,13.74
2022-08-11T01:10:42.351Z,13.71
2022-08-11T01:11:55.216Z,13.75
2022-08-11T01:12:43.305Z,13.81
2022-08-11T01:13:42.291Z,13.68
2022-08-11T01:14:42.291Z,13.65
2022-08-11T01:15:42.301Z,13.70
2022-08-11T01:16:43.270Z,13.68
2022-08-11T01:17:42.263Z,13.75
2022-08-11T01:18:42.261Z,13.67
2022-08-11T01:20:39.473Z,13.63
2022-08-11T01:20:48.629Z,13.56
2022-08-11T01:21:43.234Z,13.53
2022-08-11T01:22:42.225Z,13.52
2022-08-11T01:23:42.216Z,13.44
2022-08-11T01:24:42.211Z,13.47
2022-08-11T01:25:56.811Z,13.44
2022-08-11T01:26:43.190Z,13.38
2022-08-11T01:27:42.190Z,13.38
2022-08-11T01:28:42.177Z,13.39
2022-08-11T01:29:42.171Z,13.42
2022-08-11T01:30:43.348Z,13.37
2022-08-11T01:31:42.159Z,13.38
2022-08-11T01:32:42.146Z,13.37
2022-08-11T01:33:42.139Z,13.46
2022-08-11T01:34:42.133Z,13.38
2022-08-11T01:35:42.158Z,13.39
2022-08-11T01:36:42.114Z,13.38
2022-08-11T01:37:42.110Z,13.38
2022-08-11T01:38:42.105Z,13.54
2022-08-11T01:39:42.146Z,13.31
2022-08-11T01:40:42.090Z,13.38
2022-08-11T01:41:42.108Z,13.35
2022-08-11T01:42:42.074Z,13.25
2022-08-11T01:43:42.065Z,13.30
2022-08-11T01:44:42.053Z,13.25
2022-08-11T01:45:42.043Z,13.33
2022-08-11T01:46:43.068Z,13.30
2022-08-11T01:47:52.910Z,13.25
2022-08-11T01:48:43.026Z,13.19
2022-08-11T01:50:08.186Z,13.28
2022-08-11T01:50:43.013Z,13.28
2022-08-11T01:51:45.209Z,13.33
2022-08-11T01:52:43.208Z,13.20
2022-08-11T01:53:41.988Z,13.19
2022-08-11T01:54:41.980Z,13.27
2022-08-11T01:55:41.971Z,13.18
2022-08-11T01:56:41.984Z,13.22
2022-08-11T01:57:41.952Z,13.12
2022-08-11T01:58:44.069Z,13.12
2022-08-11T01:59:41.950Z,13.15
2022-08-11T02:00:41.991Z,13.12
2022-08-11T02:01:41.950Z,13.04
2022-08-11T02:02:41.911Z,13.09
2022-08-11T02:03:41.908Z,13.04
2022-08-11T02:04:41.899Z,13.12
2022-08-11T02:05:41.894Z,13.00
2022-08-11T02:06:41.911Z,13.01
2022-08-11T02:07:41.879Z,12.98
2022-08-11T02:08:44.766Z,12.97
2022-08-11T02:09:49.760Z,12.94
2022-08-11T02:10:42.853Z,12.93
2022-08-11T02:11:42.870Z,13.01
2022-08-11T02:12:42.300Z,12.86
2022-08-11T02:13:43.405Z,12.87
2022-08-11T02:14:41.829Z,12.94
2022-08-11T02:15:42.813Z,12.91
2022-08-11T02:16:41.833Z,12.95
2022-08-11T02:17:41.803Z,12.87
2022-08-11T02:18:41.798Z,12.85
2022-08-11T02:19:41.793Z,12.91
2022-08-11T02:20:41.783Z,12.87
2022-08-11T02:21:41.807Z,12.90
2022-08-11T02:22:41.765Z,12.90
2022-08-11T02:24:05.955Z,12.86
2022-08-11T02:24:42.749Z,12.85
2022-08-11T02:25:41.741Z,12.86
2022-08-11T02:26:41.759Z,12.90
2022-08-11T02:27:41.730Z,12.86
2022-08-11T02:28:46.429Z,12.85
2022-08-11T02:29:42.715Z,12.83
2022-08-11T02:30:41.704Z,12.86
2022-08-11T02:32:25.143Z,12.87
2022-08-11T02:32:42.829Z,12.79
2022-08-11T02:33:41.681Z,12.78
2022-08-11T02:34:41.675Z,12.82
2022-08-11T02:35:41.668Z,12.78
2022-08-11T02:36:41.685Z,12.85
2022-08-11T02:37:41.661Z,12.72
2022-08-11T02:38:41.642Z,12.80
2022-08-11T02:39:41.675Z,12.82
2022-08-11T02:40:41.624Z,12.83
2022-08-11T02:41:41.650Z,12.78
2022-08-11T02:42:41.611Z,12.82
2022-08-11T02:43:41.606Z,12.78
2022-08-11T02:44:42.593Z,12.58
2022-08-11T02:45:41.593Z,12.65
2022-08-11T02:46:41.587Z,12.65
2022-08-11T02:47:41.604Z,12.64
2022-08-11T02:48:41.567Z,12.61
2022-08-11T02:49:41.559Z,12.68
2022-08-11T02:50:41.559Z,12.73
2022-08-11T02:51:41.550Z,12.67
2022-08-11T02:52:41.563Z,12.55
2022-08-11T02:53:41.530Z,12.57
2022-08-11T02:54:41.528Z,12.55
2022-08-11T02:55:48.691Z,12.57
2022-08-11T02:56:42.508Z,12.54
2022-08-11T02:57:41.527Z,12.61
2022-08-11T02:58:41.561Z,12.58
2022-08-11T02:59:41.489Z,12.50
2022-08-11T03:00:41.475Z,12.54
2022-08-11T03:01:41.535Z,12.55
2022-08-11T03:02:41.486Z,12.62
2022-08-11T03:03:41.448Z,12.60
2022-08-11T03:04:41.445Z,12.57
2022-08-11T03:05:41.438Z,12.55
2022-08-11T03:06:41.450Z,12.50
2022-08-11T03:07:41.416Z,12.53
2022-08-11T03:08:41.411Z,12.45
2022-08-11T03:09:41.407Z,12.40
2022-08-11T03:10:41.397Z,12.35
2022-08-11T03:11:41.415Z,12.42
2022-08-11T03:12:41.385Z,12.36
2022-08-11T03:13:41.372Z,12.36
2022-08-11T03:14:41.364Z,12.46
2022-08-11T03:15:41.355Z,12.32
2022-08-11T03:16:41.373Z,12.37
2022-08-11T03:17:41.337Z,12.42
2022-08-11T03:18:41.336Z,12.39
2022-08-11T03:19:41.326Z,12.39
2022-08-11T03:20:41.317Z,12.31
2022-08-11T03:22:01.377Z,12.46
2022-08-11T03:22:42.306Z,12.28
2022-08-11T03:23:41.287Z,12.24
2022-08-11T03:24:41.287Z,12.29
2022-08-11T03:25:41.282Z,12.35
2022-08-11T03:26:41.293Z,12.28
2022-08-11T03:27:41.261Z,12.28
2022-08-11T03:28:41.254Z,12.25
2022-08-11T03:29:41.244Z,12.31
2022-08-11T03:30:41.242Z,12.21
2022-08-11T03:31:41.256Z,12.24
2022-08-11T03:32:41.220Z,12.27
2022-08-11T03:33:41.218Z,12.15
2022-08-11T03:34:41.208Z,12.09
2022-08-11T03:35:41.199Z,12.18
2022-08-11T03:37:01.717Z,12.25
2022-08-11T03:37:42.182Z,12.24
2022-08-11T03:38:41.174Z,12.12
2022-08-11T03:39:41.222Z,12.17
2022-08-11T03:40:42.155Z,12.17
2022-08-11T03:42:01.378Z,12.04
2022-08-11T03:42:42.144Z,12.18
2022-08-11T03:43:45.758Z,12.13
2022-08-11T03:44:42.123Z,12.13
2022-08-11T03:45:41.339Z,12.15
2022-08-11T03:46:42.135Z,12.18
2022-08-11T03:47:41.104Z,12.10
2022-08-11T03:48:42.091Z,12.03
2022-08-11T03:49:41.088Z,12.03
2022-08-11T03:50:41.077Z,12.04
2022-08-11T03:51:44.579Z,12.09
2022-08-11T03:52:41.066Z,12.02
2022-08-11T03:53:41.080Z,12.12
2022-08-11T03:54:41.045Z,12.06
2022-08-11T03:55:41.038Z,12.06
2022-08-11T03:56:41.030Z,12.02
2022-08-11T03:57:41.018Z,12.03
2022-08-11T03:58:42.033Z,12.00
2022-08-11T03:59:43.006Z,12.09
2022-08-11T04:00:40.997Z,12.12
2022-08-11T04:01:41.057Z,12.12
2022-08-11T04:02:40.987Z,12.03
2022-08-11T04:03:41.005Z,11.99
2022-08-11T04:04:40.979Z,12.03
2022-08-11T04:05:41.966Z,12.03
2022-08-11T04:06:40.957Z,12.06
2022-08-11T04:07:40.957Z,12.07
2022-08-11T04:08:40.963Z,12.10
2022-08-11T04:09:40.936Z,12.03
2022-08-11T04:10:40.936Z,12.17
2022-08-11T04:11:40.922Z,12.28
2022-08-11T04:12:45.537Z,12.12
2022-08-11T04:13:42.924Z,12.21
2022-08-11T04:14:40.895Z,12.28
2022-08-11T04:15:40.897Z,12.31
2022-08-11T04:16:40.881Z,12.21
2022-08-11T04:17:40.879Z,12.25
2022-08-11T04:18:40.894Z,12.32
2022-08-11T04:19:40.855Z,12.35
2022-08-11T04:20:40.852Z,12.50
2022-08-11T04:21:40.841Z,12.68
2022-08-11T04:22:40.835Z,12.85
2022-08-11T04:24:35.585Z,13.09
2022-08-11T04:24:41.822Z,13.42
2022-08-11T04:25:57.714Z,13.74
2022-08-11T04:26:41.809Z,13.97
2022-08-11T04:27:40.800Z,14.15
2022-08-11T04:28:45.695Z,14.43
2022-08-11T04:30:03.059Z,14.58
2022-08-11T04:30:41.777Z,14.86
2022-08-11T04:31:49.526Z,15.11
2022-08-11T04:32:41.767Z,15.21
2022-08-11T04:33:40.784Z,15.54
2022-08-11T04:34:40.746Z,15.72
2022-08-11T04:35:40.740Z,15.92
2022-08-11T04:36:40.738Z,16.28
2022-08-11T04:37:40.724Z,16.53
2022-08-11T04:38:40.742Z,16.61
2022-08-11T04:39:40.789Z,16.83
2022-08-11T04:40:40.702Z,17.01
2022-08-11T04:41:40.694Z,17.24
2022-08-11T04:42:40.880Z,17.31
2022-08-11T04:44:02.645Z,17.54
2022-08-11T04:44:41.668Z,17.64
2022-08-11T04:45:40.660Z,17.76
2022-08-11T04:46:40.657Z,17.95
2022-08-11T04:48:01.825Z,18.25
2022-08-11T04:48:41.656Z,18.41
2022-08-11T04:49:40.634Z,18.47
2022-08-11T04:50:40.622Z,18.73
2022-08-11T04:51:40.613Z,19.00
2022-08-11T04:52:40.882Z,19.14
2022-08-11T04:53:40.637Z,19.16
2022-08-11T04:54:40.588Z,19.15
2022-08-11T04:55:40.602Z,19.45
2022-08-11T04:56:40.580Z,19.15
2022-08-11T04:57:40.569Z,19.58
2022-08-11T04:58:40.587Z,19.69
2022-08-11T04:59:40.551Z,20.03
2022-08-11T05:00:40.548Z,20.19
2022-08-11T05:01:40.586Z,20.19
2022-08-11T05:02:40.533Z,20.48
2022-08-11T05:03:40.525Z,20.69
2022-08-11T05:04:40.545Z,20.96
2022-08-11T05:05:40.511Z,21.07
2022-08-11T05:06:41.508Z,21.21
2022-08-11T05:07:40.504Z,21.33
2022-08-11T05:08:40.521Z,21.58
2022-08-11T05:09:40.484Z,21.83
2022-08-11T05:10:43.223Z,22.06
2022-08-11T05:11:40.481Z,22.23
2022-08-11T05:12:40.464Z,22.35
2022-08-11T05:13:40.456Z,22.50
2022-08-11T05:14:40.473Z,22.47
2022-08-11T05:15:43.011Z,22.47
2022-08-11T05:16:40.438Z,22.08
2022-08-11T05:17:40.423Z,21.80
2022-08-11T05:18:40.421Z,21.93
2022-08-11T05:19:40.442Z,22.23
2022-08-11T05:20:40.404Z,22.45
2022-08-11T05:21:44.947Z,22.62
2022-08-11T05:22:41.389Z,23.05
2022-08-11T05:23:40.378Z,23.27
2022-08-11T05:24:40.430Z,23.47
2022-08-11T05:26:44.263Z,23.76
2022-08-11T05:26:47.243Z,24.06
2022-08-11T05:27:41.350Z,23.92
2022-08-11T05:28:40.342Z,23.95
2022-08-11T05:29:40.363Z,23.88
2022-08-11T05:30:40.332Z,23.81
2022-08-11T05:31:40.321Z,23.74
2022-08-11T05:32:40.375Z,23.87
2022-08-11T05:33:40.303Z,23.78
2022-08-11T05:34:40.331Z,23.84
2022-08-11T05:36:02.097Z,23.91
2022-08-11T05:36:41.285Z,23.83
2022-08-11T05:37:40.281Z,24.03
2022-08-11T05:38:40.299Z,24.24
2022-08-11T05:39:40.315Z,24.39
2022-08-11T05:40:40.291Z,24.16
2022-08-11T05:41:40.251Z,24.16
2022-08-11T05:42:40.622Z,24.54
2022-08-11T05:44:20.148Z,25.03
2022-08-11T05:44:41.224Z,24.88
2022-08-11T05:46:02.793Z,24.61
2022-08-11T05:46:41.215Z,24.63
2022-08-11T05:47:40.206Z,24.85
2022-08-11T05:48:40.229Z,24.76
2022-08-11T05:49:40.193Z,24.53
2022-08-11T05:50:40.181Z,24.53
2022-08-11T05:51:54.847Z,24.58
2022-08-11T05:52:41.824Z,24.77
2022-08-11T05:53:46.089Z,24.95
2022-08-11T05:54:41.150Z,25.01
2022-08-11T05:55:52.538Z,25.10
2022-08-11T05:56:41.140Z,25.40
2022-08-11T05:57:51.279Z,25.66
2022-08-11T05:58:43.046Z,25.91
2022-08-11T05:59:41.116Z,26.29
2022-08-11T06:00:40.108Z,26.47
2022-08-11T06:01:40.167Z,26.34
2022-08-11T06:02:40.117Z,26.21
2022-08-11T06:03:40.125Z,26.29
2022-08-11T06:04:41.087Z,26.22
2022-08-11T06:05:43.996Z,26.36
2022-08-11T06:06:43.493Z,26.51
2022-08-11T06:07:49.122Z,26.47
2022-08-11T06:08:41.088Z,26.51
2022-08-11T06:09:40.052Z,26.37
2022-08-11T06:10:40.043Z,26.25
2022-08-11T06:11:42.879Z,26.16
2022-08-11T06:12:40.027Z,26.40
2022-08-11T06:13:40.049Z,26.38
2022-08-11T06:14:40.019Z,26.53
2022-08-11T06:15:40.013Z,26.48
2022-08-11T06:16:40.009Z,26.78
2022-08-11T06:17:40.002Z,27.11
2022-08-11T06:18:40.023Z,27.22
2022-08-11T06:19:39.988Z,27.63
2022-08-11T06:20:39.986Z,27.83
2022-08-11T06:21:39.977Z,28.12
2022-08-11T06:22:39.968Z,28.33
2022-08-11T06:23:39.990Z,28.51
2022-08-11T06:24:39.964Z,28.67
2022-08-11T06:25:39.959Z,29.23
2022-08-11T06:26:55.087Z,29.66
2022-08-11T06:27:41.943Z,29.72
2022-08-11T06:28:40.027Z,29.29
2022-08-11T06:29:48.094Z,28.70
2022-08-11T06:30:40.918Z,28.54
2022-08-11T06:31:39.914Z,28.52
2022-08-11T06:32:40.070Z,28.81
2022-08-11T06:33:39.931Z,29.14
2022-08-11T06:34:39.894Z,28.66
2022-08-11T06:35:39.893Z,28.45
2022-08-11T06:36:39.889Z,28.51
2022-08-11T06:37:39.881Z,28.74
2022-08-11T06:38:39.900Z,28.75
2022-08-11T06:39:39.882Z,29.05
2022-08-11T06:40:39.858Z,29.76
2022-08-11T06:41:39.854Z,30.21
2022-08-11T06:42:39.935Z,30.59
2022-08-11T06:43:39.871Z,30.80
2022-08-11T06:44:40.837Z,30.63
2022-08-11T06:45:39.831Z,30.66
2022-08-11T06:46:39.827Z,30.77
2022-08-11T06:47:40.451Z,30.91
2022-08-11T06:48:39.843Z,30.96
2022-08-11T06:49:39.814Z,31.47
2022-08-11T06:50:39.806Z,31.40
2022-08-11T06:51:41.802Z,30.96
2022-08-11T06:52:39.797Z,30.59
2022-08-11T06:53:39.811Z,30.65
2022-08-11T06:54:39.781Z,30.43
2022-08-11T06:55:56.187Z,30.62
2022-08-11T06:56:40.764Z,30.90
2022-08-11T06:57:39.763Z,31.07
2022-08-11T06:58:39.786Z,31.59
2022-08-11T06:59:39.752Z,31.56
2022-08-11T07:00:39.757Z,31.76
2022-08-11T07:01:39.795Z,32.04
2022-08-11T07:02:39.801Z,31.87
2022-08-11T07:03:39.759Z,31.97
2022-08-11T07:04:39.723Z,32.09
2022-08-11T07:05:39.730Z,32.36
2022-08-11T07:06:50.626Z,32.30
2022-08-11T07:07:40.704Z,32.55
2022-08-11T07:08:39.725Z,33.17
2022-08-11T07:09:39.695Z,33.00
2022-08-11T07:10:39.691Z,32.58
2022-08-11T07:11:39.683Z,32.82
2022-08-11T07:12:39.831Z,32.97
2022-08-11T07:13:44.902Z,32.82
2022-08-11T07:14:40.663Z,33.27
2022-08-11T07:16:11.202Z,33.53
2022-08-11T07:16:40.658Z,34.02
2022-08-11T07:17:39.656Z,34.48
2022-08-11T07:18:39.671Z,34.27
2022-08-11T07:19:39.646Z,34.51
2022-08-11T07:20:39.635Z,34.92
2022-08-11T07:21:59.949Z,35.08
2022-08-11T07:22:40.624Z,34.90
2022-08-11T07:23:39.670Z,34.52
2022-08-11T07:24:59.628Z,34.30
2022-08-11T07:25:40.608Z,33.47
2022-08-11T07:26:39.605Z,33.22
2022-08-11T07:27:39.601Z,32.82
2022-08-11T07:28:39.630Z,32.95
2022-08-11T07:29:39.593Z,33.20
2022-08-11T07:30:39.583Z,32.95
2022-08-11T07:31:39.581Z,33.49
2022-08-11T07:32:39.579Z,33.83
2022-08-11T07:34:07.502Z,34.17
2022-08-11T07:34:40.592Z,34.54
2022-08-11T07:35:39.553Z,34.81
2022-08-11T07:36:39.570Z,35.30
2022-08-11T07:37:39.546Z,35.37
2022-08-11T07:38:39.541Z,35.78
2022-08-11T07:39:39.703Z,35.73
2022-08-11T07:40:39.535Z,35.67
2022-08-11T07:41:39.524Z,35.56
2022-08-11T07:42:39.707Z,35.02
2022-08-11T07:43:39.517Z,33.79
2022-08-11T07:44:39.531Z,32.77
2022-08-11T07:45:39.502Z,32.60
2022-08-11T07:46:39.495Z,32.82
2022-08-11T07:47:39.487Z,32.80
2022-08-11T07:48:39.482Z,32.46
2022-08-11T07:49:39.504Z,31.97
2022-08-11T07:50:39.472Z,31.33
2022-08-11T07:51:39.493Z,30.90
2022-08-11T07:52:39.572Z,31.17
2022-08-11T07:53:57.910Z,31.06
2022-08-11T07:54:40.476Z,30.94
2022-08-11T07:55:48.966Z,31.34
2022-08-11T07:56:55.497Z,31.42
2022-08-11T07:58:04.378Z,31.10
2022-08-11T07:58:45.050Z,31.43
2022-08-11T07:59:58.572Z,32.04
2022-08-11T08:00:40.425Z,32.21
2022-08-11T08:01:39.471Z,31.84
2022-08-11T08:02:39.455Z,31.65
2022-08-11T08:03:39.404Z,31.17
2022-08-11T08:04:44.136Z,31.20
2022-08-11T08:05:40.389Z,31.59
2022-08-11T08:06:39.386Z,32.08
2022-08-11T08:07:39.370Z,31.54
2022-08-11T08:08:40.373Z,31.51
2022-08-11T08:09:39.391Z,32.01
2022-08-11T08:10:39.378Z,32.03
2022-08-11T08:11:39.359Z,31.40
2022-08-11T08:12:39.549Z,31.36
2022-08-11T08:13:39.344Z,32.33
2022-08-11T08:14:39.361Z,32.90
2022-08-11T08:15:39.330Z,32.53
2022-08-11T08:16:39.328Z,32.01
2022-08-11T08:17:39.327Z,31.49
2022-08-11T08:18:39.329Z,31.05
2022-08-11T08:19:39.500Z,31.14
2022-08-11T08:20:39.312Z,31.65
2022-08-11T08:21:39.303Z,32.00
2022-08-11T08:22:40.550Z,31.61
2022-08-11T08:23:40.287Z,31.36
2022-08-11T08:24:39.306Z,30.91
2022-08-11T08:25:39.276Z,30.96
2022-08-11T08:26:39.269Z,31.49
2022-08-11T08:27:39.266Z,31.20
2022-08-11T08:28:39.259Z,31.06
2022-08-11T08:29:39.254Z,30.97
2022-08-11T08:30:39.275Z,31.20
2022-08-11T08:31:39.238Z,31.25
2022-08-11T08:32:39.366Z,31.70
2022-08-11T08:33:39.224Z,31.56
2022-08-11T08:34:39.222Z,31.40
2022-08-11T08:35:54.386Z,31.12
2022-08-11T08:36:40.206Z,30.77
2022-08-11T08:37:45.569Z,30.50
2022-08-11T08:38:40.184Z,30.78
2022-08-11T08:39:40.259Z,30.59
2022-08-11T08:40:39.214Z,30.59
2022-08-11T08:41:39.182Z,30.57
2022-08-11T08:42:43.091Z,30.77
2022-08-11T08:43:47.617Z,30.80
2022-08-11T08:44:41.340Z,30.90
2022-08-11T08:45:40.189Z,31.43
2022-08-11T08:46:39.149Z,32.07
2022-08-11T08:47:42.913Z,31.49
2022-08-11T08:48:39.140Z,30.80
2022-08-11T08:49:40.424Z,31.09
2022-08-11T08:50:39.161Z,31.54
2022-08-11T08:52:00.837Z,30.88
2022-08-11T08:52:43.641Z,30.90
2022-08-11T08:53:40.111Z,31.20
2022-08-11T08:54:40.101Z,31.71
2022-08-11T08:55:44.995Z,31.62
2022-08-11T08:56:41.095Z,31.22
2022-08-11T08:57:40.223Z,30.78
2022-08-11T08:58:39.085Z,30.48
2022-08-11T08:59:49.221Z,30.18
2022-08-11T09:00:40.094Z,30.34
2022-08-11T09:01:39.094Z,30.46
2022-08-11T09:02:39.054Z,30.51
2022-08-11T09:04:05.239Z,30.68
2022-08-11T09:04:41.041Z,30.65
2022-08-11T09:05:39.066Z,30.63
2022-08-11T09:06:39.031Z,30.24
2022-08-11T09:07:40.631Z,30.31
2022-08-11T09:08:39.027Z,30.27
2022-08-11T09:09:39.016Z,30.21
2022-08-11T09:10:39.032Z,30.02
2022-08-11T09:11:39.001Z,29.90
2022-08-11T09:12:39.305Z,29.98
2022-08-11T09:13:38.988Z,29.90
2022-08-11T09:14:38.983Z,29.75
2022-08-11T09:15:39.006Z,29.90
2022-08-11T09:16:38.967Z,30.16
2022-08-11T09:17:39.591Z,30.00
2022-08-11T09:18:38.956Z,29.71
2022-08-11T09:19:38.952Z,29.54
2022-08-11T09:20:38.963Z,29.75
2022-08-11T09:21:49.439Z,29.75
2022-08-11T09:22:40.032Z,29.79
2022-08-11T09:24:08.843Z,29.88
2022-08-11T09:24:40.909Z,30.10
2022-08-11T09:25:38.929Z,30.37
2022-08-11T09:26:38.898Z,30.72
2022-08-11T09:27:39.096Z,30.40
2022-08-11T09:28:39.882Z,30.23
2022-08-11T09:29:38.885Z,30.08
2022-08-11T09:30:38.897Z,30.16
2022-08-11T09:31:40.048Z,30.28
2022-08-11T09:32:39.870Z,30.19
2022-08-11T09:33:38.849Z,30.68
2022-08-11T09:34:38.846Z,31.44
2022-08-11T09:35:38.865Z,30.92
2022-08-11T09:36:38.851Z,30.54
2022-08-11T09:37:55.582Z,30.44
2022-08-11T09:38:39.818Z,30.51
2022-08-11T09:39:38.863Z,30.73
2022-08-11T09:40:38.832Z,31.07
2022-08-11T09:42:01.518Z,31.71
2022-08-11T09:42:39.795Z,31.90
2022-08-11T09:43:38.787Z,32.00
2022-08-11T09:44:38.779Z,31.42
2022-08-11T09:45:40.203Z,30.78
2022-08-11T09:46:38.764Z,30.13
2022-08-11T09:47:38.888Z,30.10
2022-08-11T09:48:38.748Z,29.94
2022-08-11T09:49:38.743Z,30.09
2022-08-11T09:50:38.764Z,29.88
2022-08-11T09:51:38.735Z,29.84
2022-08-11T09:52:38.723Z,29.57
2022-08-11T09:53:41.266Z,29.45
2022-08-11T09:54:38.705Z,29.32
2022-08-11T09:55:38.727Z,29.13
2022-08-11T09:56:38.698Z,29.24
2022-08-11T09:57:38.777Z,29.38
2022-08-11T09:58:42.620Z,29.26
2022-08-11T09:59:38.679Z,29.08
2022-08-11T10:00:38.696Z,29.10
2022-08-11T10:01:38.681Z,29.16
2022-08-11T10:02:38.659Z,29.08
2022-08-11T10:03:40.464Z,29.14
2022-08-11T10:04:39.641Z,29.26
2022-08-11T10:05:38.674Z,29.39
2022-08-11T10:06:38.626Z,29.44
2022-08-11T10:07:38.750Z,29.79
2022-08-11T10:08:38.625Z,29.59
2022-08-11T10:09:38.606Z,29.47
2022-08-11T10:10:38.625Z,29.24
2022-08-11T10:11:38.599Z,29.27
2022-08-11T10:12:38.585Z,29.17
2022-08-11T10:14:32.180Z,29.10
2022-08-11T10:14:44.410Z,29.04
2022-08-11T10:15:59.564Z,29.23
2022-08-11T10:16:39.552Z,29.22
2022-08-11T10:17:38.660Z,29.20
2022-08-11T10:18:38.540Z,29.23
2022-08-11T10:19:38.534Z,29.10
2022-08-11T10:20:38.554Z,28.93
2022-08-11T10:21:38.524Z,29.10
2022-08-11T10:22:38.505Z,29.02
2022-08-11T10:24:01.015Z,28.96
2022-08-11T10:24:39.492Z,28.82
2022-08-11T10:25:38.508Z,28.91
2022-08-11T10:26:38.471Z,28.98
2022-08-11T10:28:16.592Z,29.01
2022-08-11T10:29:02.197Z,29.04
2022-08-11T10:29:44.253Z,29.17
2022-08-11T10:30:38.442Z,29.22
2022-08-11T10:31:45.141Z,29.10
2022-08-11T10:32:49.356Z,29.27
2022-08-11T10:33:41.759Z,29.38
2022-08-11T10:34:40.415Z,29.42
2022-08-11T10:35:39.411Z,29.49
2022-08-11T10:36:38.427Z,29.41
2022-08-11T10:38:08.522Z,29.57
2022-08-11T10:38:39.388Z,29.66
2022-08-11T10:39:38.444Z,29.91
2022-08-11T10:40:38.375Z,29.73
2022-08-11T10:41:38.390Z,29.87
2022-08-11T10:42:57.062Z,29.72
2022-08-11T10:44:02.498Z,29.75
2022-08-11T10:44:39.346Z,29.75
2022-08-11T10:45:38.335Z,29.50
2022-08-11T10:46:38.355Z,29.41
2022-08-11T10:47:38.459Z,29.34
2022-08-11T10:48:39.316Z,29.39
2022-08-11T10:49:38.304Z,29.35
2022-08-11T10:50:38.297Z,29.42
2022-08-11T10:51:51.667Z,29.61
2022-08-11T10:52:39.463Z,29.50
2022-08-11T10:53:38.275Z,29.71
2022-08-11T10:54:38.266Z,29.79
2022-08-11T10:55:38.254Z,29.84
2022-08-11T10:56:38.280Z,29.75
2022-08-11T10:57:38.474Z,29.86
2022-08-11T10:58:38.236Z,30.06
2022-08-11T10:59:38.227Z,29.79
2022-08-11T11:00:38.218Z,29.63
2022-08-11T11:01:38.243Z,29.53
2022-08-11T11:02:38.208Z,29.47
2022-08-11T11:03:38.201Z,29.66
2022-08-11T11:04:38.217Z,29.32
2022-08-11T11:05:38.186Z,29.31
2022-08-11T11:06:39.202Z,29.38
2022-08-11T11:07:41.491Z,29.29
2022-08-11T11:08:39.230Z,29.35
2022-08-11T11:09:38.160Z,29.16
2022-08-11T11:10:38.154Z,29.24
2022-08-11T11:11:38.177Z,29.45
2022-08-11T11:12:38.278Z,29.71
2022-08-11T11:13:38.127Z,29.54
2022-08-11T11:14:46.275Z,29.60
2022-08-11T11:15:39.112Z,29.61
2022-08-11T11:16:38.135Z,29.27
2022-08-11T11:17:38.098Z,29.24
2022-08-11T11:18:38.094Z,29.59
2022-08-11T11:19:38.093Z,29.71
2022-08-11T11:20:40.776Z,29.66
2022-08-11T11:21:43.330Z,29.79
2022-08-11T11:22:38.303Z,29.90
2022-08-11T11:23:38.055Z,30.15
2022-08-11T11:24:38.049Z,30.12
2022-08-11T11:25:38.042Z,30.28
2022-08-11T11:26:38.059Z,29.81
2022-08-11T11:27:46.687Z,29.50
2022-08-11T11:28:39.018Z,29.51
2022-08-11T11:29:38.009Z,29.61
2022-08-11T11:30:38.010Z,29.60
2022-08-11T11:31:38.038Z,29.60
2022-08-11T11:32:38.165Z,29.57
2022-08-11T11:33:59.968Z,29.66
2022-08-11T11:34:53.182Z,29.71
2022-08-11T11:35:38.969Z,29.36
2022-08-11T11:36:37.963Z,29.29
2022-08-11T11:37:37.981Z,29.20
2022-08-11T11:38:37.945Z,29.31
2022-08-11T11:39:37.946Z,29.60
2022-08-11T11:40:37.930Z,29.75
2022-08-11T11:41:37.922Z,29.73
2022-08-11T11:42:38.174Z,29.82
2022-08-11T11:43:37.912Z,29.90
2022-08-11T11:44:37.898Z,29.97
2022-08-11T11:45:37.903Z,29.97
2022-08-11T11:46:38.845Z,30.02
2022-08-11T11:47:37.905Z,30.02
2022-08-11T11:48:37.868Z,30.02
2022-08-11T11:49:37.864Z,29.87
2022-08-11T11:50:37.860Z,29.82
2022-08-11T11:51:37.851Z,29.76
2022-08-11T11:52:38.086Z,29.91
2022-08-11T11:53:37.831Z,29.95
2022-08-11T11:54:37.832Z,29.69
2022-08-11T11:55:37.827Z,29.72
2022-08-11T11:56:37.813Z,29.84
2022-08-11T11:57:38.030Z,29.90
2022-08-11T11:58:37.796Z,29.88
2022-08-11T11:59:37.790Z,29.84
2022-08-11T12:00:40.360Z,29.71
2022-08-11T12:01:38.773Z,29.72
2022-08-11T12:02:37.790Z,29.84
2022-08-11T12:03:37.798Z,29.94
2022-08-11T12:04:37.749Z,29.95
2022-08-11T12:05:37.740Z,30.03
2022-08-11T12:06:37.778Z,30.19
2022-08-11T12:07:37.896Z,30.23
2022-08-11T12:08:37.717Z,30.24
2022-08-11T12:09:37.720Z,30.18
2022-08-11T12:10:37.701Z,29.93
2022-08-11T12:11:37.699Z,29.98
2022-08-11T12:12:37.719Z,30.25
2022-08-11T12:13:37.683Z,30.18
2022-08-11T12:14:37.675Z,30.16
2022-08-11T12:16:31.326Z,30.25
2022-08-11T12:16:38.661Z,30.25
2022-08-11T12:17:37.969Z,30.10
2022-08-11T12:18:37.649Z,29.98
2022-08-11T12:19:37.646Z,29.73
2022-08-11T12:20:37.636Z,29.94
2022-08-11T12:21:37.631Z,30.25
2022-08-11T12:22:37.649Z,30.23
2022-08-11T12:23:37.617Z,29.98
2022-08-11T12:24:37.609Z,29.94
2022-08-11T12:25:37.602Z,30.02
2022-08-11T12:26:37.598Z,30.02
2022-08-11T12:27:39.306Z,29.84
2022-08-11T12:28:37.581Z,29.72
2022-08-11T12:29:41.117Z,29.66
2022-08-11T12:30:38.597Z,29.73
2022-08-11T12:31:37.560Z,29.79
2022-08-11T12:32:37.775Z,30.00
2022-08-11T12:33:39.532Z,29.95
2022-08-11T12:34:38.534Z,29.97
2022-08-11T12:35:37.525Z,29.84
2022-08-11T12:36:37.519Z,30.02
2022-08-11T12:37:37.636Z,30.09
2022-08-11T12:38:37.505Z,30.12
2022-08-11T12:40:16.219Z,30.25
2022-08-11T12:41:03.565Z,30.03
2022-08-11T12:41:38.564Z,29.91
2022-08-11T12:42:37.495Z,30.13
2022-08-11T12:43:38.713Z,30.08
2022-08-11T12:44:37.454Z,30.12
2022-08-11T12:45:37.449Z,30.28
2022-08-11T12:46:37.442Z,30.13
2022-08-11T12:47:37.744Z,30.10
2022-08-11T12:48:58.854Z,30.24
2022-08-11T12:49:41.991Z,30.23
2022-08-11T12:50:38.412Z,30.24
2022-08-11T12:52:00.886Z,30.21
2022-08-11T12:52:38.425Z,29.97